Time;durP1;ratioP1;P1;durP2;ratioP2;P2;SDS_P1;SDS_P2;PMS_P1;PMS_P2;Temp;Humidity;BMP_temperature;BMP_pressure;BME280_temperature;BME280_humidity;BME280_pressure;Samples;Min_cycle;Max_cycle;Signal;HPM_P1;HPM_P2
2022/11/20 00:00:20;;;;;;;23.13;14.82;;;;;;;;;;5274472;28;20381;-77
2022/11/20 00:02:51;;;;;;;25.95;14.57;;;;;;;;;;5277490;28;20045;-77
2022/11/20 00:05:22;;;;;;;22.48;13.75;;;;;;;;;;5277928;28;20185;-77
2022/11/20 00:07:53;;;;;;;22.33;14.23;;;;;;;;;;5275072;28;20040;-77
2022/11/20 00:10:24;;;;;;;20.87;14.07;;;;;;;;;;5276812;28;20314;-76
2022/11/20 00:12:57;;;;;;;22.83;14.90;;;;;;;;;;5274610;28;20283;-77
2022/11/20 00:15:28;;;;;;;22.73;15.48;;;;;;;;;;5273369;28;20032;-77
2022/11/20 00:17:59;;;;;;;22.42;14.30;;;;;;;;;;5257686;28;20426;-77
2022/11/20 00:20:31;;;;;;;22.88;14.35;;;;;;;;;;5275545;28;20438;-77
2022/11/20 00:23:02;;;;;;;23.15;15.15;;;;;;;;;;5277673;28;20509;-77
2022/11/20 00:25:34;;;;;;;22.20;15.00;;;;;;;;;;5274097;28;20033;-77
2022/11/20 00:28:05;;;;;;;23.02;15.10;;;;;;;;;;5277568;28;20025;-77
2022/11/20 00:30:36;;;;;;;21.93;14.03;;;;;;;;;;5275213;28;20044;-76
2022/11/20 00:33:07;;;;;;;24.48;15.57;;;;;;;;;;5275541;28;20271;-74
2022/11/20 00:35:39;;;;;;;23.63;15.65;;;;;;;;;;5278000;28;20029;-75
2022/11/20 00:38:10;;;;;;;23.50;15.53;;;;;;;;;;5261152;28;20110;-75
2022/11/20 00:40:41;;;;;;;21.43;14.73;;;;;;;;;;5281535;28;20284;-75
2022/11/20 00:43:12;;;;;;;25.07;15.53;;;;;;;;;;5282455;28;20493;-76
2022/11/20 00:45:43;;;;;;;26.38;16.83;;;;;;;;;;5262397;28;20275;-75
2022/11/20 00:48:14;;;;;;;23.60;15.18;;;;;;;;;;5280801;28;20226;-75
2022/11/20 00:50:46;;;;;;;26.50;16.07;;;;;;;;;;5264274;28;20345;-75
2022/11/20 00:53:17;;;;;;;24.85;15.73;;;;;;;;;;5284761;28;20793;-76
2022/11/20 00:56:01;;;;;;;25.30;16.27;;;;;;;;;;5282703;28;20033;-75
2022/11/20 00:58:34;;;;;;;22.85;15.65;;;;;;;;;;5280140;28;20272;-75
2022/11/20 01:01:09;;;;;;;25.40;16.45;;;;;;;;;;5282095;28;21059;-75
2022/11/20 01:03:42;;;;;;;21.83;13.77;;;;;;;;;;5280503;28;20551;-75
2022/11/20 01:06:15;;;;;;;23.30;14.75;;;;;;;;;;5280448;28;20389;-75
2022/11/20 01:08:47;;;;;;;24.13;15.52;;;;;;;;;;5283224;28;20033;-75
2022/11/20 01:11:21;;;;;;;23.95;15.63;;;;;;;;;;5282594;28;20497;-75
2022/11/20 01:13:54;;;;;;;22.13;14.18;;;;;;;;;;5280150;28;20532;-75
2022/11/20 01:16:27;;;;;;;22.88;14.48;;;;;;;;;;5282453;28;20033;-75
2022/11/20 01:18:59;;;;;;;25.25;16.13;;;;;;;;;;5282061;28;20059;-75
2022/11/20 01:21:32;;;;;;;26.20;16.40;;;;;;;;;;5281168;28;20036;-76
2022/11/20 01:24:04;;;;;;;25.08;16.13;;;;;;;;;;5282051;28;20037;-75
2022/11/20 01:26:36;;;;;;;28.70;16.50;;;;;;;;;;5263825;28;20040;-75
2022/11/20 01:29:12;;;;;;;25.83;16.10;;;;;;;;;;5282699;28;20374;-75
2022/11/20 01:31:43;;;;;;;27.05;16.92;;;;;;;;;;5283944;28;20025;-75
2022/11/20 01:34:16;;;;;;;26.58;16.27;;;;;;;;;;5281132;28;20052;-76
2022/11/20 01:36:47;;;;;;;28.23;17.20;;;;;;;;;;5268069;28;20024;-75
2022/11/20 01:39:21;;;;;;;27.50;16.65;;;;;;;;;;5280708;28;20444;-75
2022/11/20 01:44:54;;;;;;;30.90;17.70;;;;;;;;;;5279793;28;20540;-76
2022/11/20 01:47:34;;;;;;;27.85;16.50;;;;;;;;;;5277784;28;20029;-76
2022/11/20 01:50:11;;;;;;;29.90;17.00;;;;;;;;;;5274914;28;20451;-76
2022/11/20 01:52:45;;;;;;;26.42;15.48;;;;;;;;;;5277530;28;20040;-76
2022/11/20 01:55:19;;;;;;;28.95;16.40;;;;;;;;;;5277404;28;20096;-74
2022/11/20 01:57:50;;;;;;;25.80;16.58;;;;;;;;;;5277895;28;20048;-75
2022/11/20 02:00:21;;;;;;;26.25;16.13;;;;;;;;;;5277926;28;20041;-76
2022/11/20 02:03:01;;;;;;;30.10;16.75;;;;;;;;;;5275055;28;20029;-76
2022/11/20 02:05:32;;;;;;;25.50;15.68;;;;;;;;;;5275100;28;20037;-76
2022/11/20 02:08:05;;;;;;;25.63;15.50;;;;;;;;;;5279617;28;20439;-76
2022/11/20 02:10:37;;;;;;;22.42;14.93;;;;;;;;;;5278165;28;20290;-75
2022/11/20 02:15:58;;;;;;;27.38;16.23;;;;;;;;;;5274843;28;20037;-75
2022/11/20 02:18:29;;;;;;;25.80;15.18;;;;;;;;;;5276510;28;20443;-76
2022/11/20 02:21:05;;;;;;;27.05;16.02;;;;;;;;;;5277518;28;21253;-75
2022/11/20 02:23:38;;;;;;;34.55;19.17;;;;;;;;;;5276370;28;20021;-75
2022/11/20 02:26:11;;;;;;;31.52;18.48;;;;;;;;;;5278726;28;20068;-76
2022/11/20 02:28:43;;;;;;;29.98;18.52;;;;;;;;;;5275244;28;20030;-75
2022/11/20 02:31:14;;;;;;;30.75;18.33;;;;;;;;;;5276173;28;20076;-76
2022/11/20 02:33:45;;;;;;;32.67;18.40;;;;;;;;;;5277986;28;20427;-76
2022/11/20 02:36:16;;;;;;;34.50;18.27;;;;;;;;;;5258149;28;20298;-76
2022/11/20 02:38:48;;;;;;;31.55;17.88;;;;;;;;;;5276169;28;20306;-76
2022/11/20 02:41:20;;;;;;;32.15;18.58;;;;;;;;;;5258318;28;20652;-77
2022/11/20 02:43:51;;;;;;;31.05;18.42;;;;;;;;;;5276986;28;20029;-77
2022/11/20 02:46:22;;;;;;;32.07;18.63;;;;;;;;;;5278374;28;20451;-77
2022/11/20 02:48:53;;;;;;;35.75;20.02;;;;;;;;;;5275042;28;20663;-76
2022/11/20 02:51:24;;;;;;;35.75;19.92;;;;;;;;;;5274452;28;20717;-76
2022/11/20 02:53:56;;;;;;;31.27;18.88;;;;;;;;;;5275519;28;20433;-76
2022/11/20 02:56:27;;;;;;;36.10;20.10;;;;;;;;;;5256889;28;20108;-76
2022/11/20 02:58:58;;;;;;;34.63;20.10;;;;;;;;;;5276009;28;20037;-75
2022/11/20 03:01:30;;;;;;;31.05;18.75;;;;;;;;;;5258720;28;20555;-76
2022/11/20 03:04:01;;;;;;;33.63;20.17;;;;;;;;;;5277938;28;20057;-76
2022/11/20 03:06:32;;;;;;;32.22;19.80;;;;;;;;;;5274253;28;20279;-76
2022/11/20 03:09:03;;;;;;;31.75;18.83;;;;;;;;;;5274817;28;20021;-78
2022/11/20 03:11:35;;;;;;;33.13;19.02;;;;;;;;;;5259210;28;20112;-75
2022/11/20 03:14:06;;;;;;;28.25;17.63;;;;;;;;;;5274154;28;20051;-75
2022/11/20 03:16:37;;;;;;;33.63;19.30;;;;;;;;;;5277673;28;20025;-76
2022/11/20 03:19:08;;;;;;;32.80;18.83;;;;;;;;;;5274537;28;20275;-77
2022/11/20 03:21:39;;;;;;;29.25;18.90;;;;;;;;;;5259471;28;20279;-75
2022/11/20 03:24:11;;;;;;;35.70;20.60;;;;;;;;;;5275234;28;20517;-77
2022/11/20 03:26:42;;;;;;;32.53;19.95;;;;;;;;;;5276154;28;20609;-77
2022/11/20 03:29:13;;;;;;;33.45;20.65;;;;;;;;;;5275248;28;20693;-77
2022/11/20 03:31:44;;;;;;;31.60;19.70;;;;;;;;;;5277243;28;20029;-76
2022/11/20 03:34:15;;;;;;;28.95;18.50;;;;;;;;;;5277065;28;20068;-76
2022/11/20 03:36:47;;;;;;;31.75;19.95;;;;;;;;;;5278292;28;20035;-76
2022/11/20 03:39:18;;;;;;;32.42;20.10;;;;;;;;;;5276853;28;20052;-76
2022/11/20 03:41:49;;;;;;;31.87;18.70;;;;;;;;;;5272642;28;20043;-76
2022/11/20 03:44:21;;;;;;;31.25;20.40;;;;;;;;;;5274277;28;20385;-76
2022/11/20 03:46:52;;;;;;;31.35;19.17;;;;;;;;;;5274151;28;20033;-76
2022/11/20 03:49:23;;;;;;;29.85;17.90;;;;;;;;;;5277127;28;20135;-77
2022/11/20 03:51:54;;;;;;;31.80;18.60;;;;;;;;;;5277607;28;20025;-76
2022/11/20 03:54:25;;;;;;;33.27;18.67;;;;;;;;;;5278670;28;20511;-76
2022/11/20 03:56:57;;;;;;;32.60;19.05;;;;;;;;;;5274433;28;20292;-76
2022/11/20 03:59:28;;;;;;;34.57;20.83;;;;;;;;;;5275546;28;20095;-76
2022/11/20 04:01:59;;;;;;;30.87;18.67;;;;;;;;;;5261168;28;20291;-76
2022/11/20 04:04:30;;;;;;;31.25;19.20;;;;;;;;;;5276083;28;20314;-76
2022/11/20 04:07:01;;;;;;;31.88;19.00;;;;;;;;;;5257311;28;20061;-76
2022/11/20 04:09:33;;;;;;;27.08;17.80;;;;;;;;;;5275343;28;20853;-76
2022/11/20 04:12:04;;;;;;;32.57;18.10;;;;;;;;;;5273363;28;20072;-76
2022/11/20 04:14:35;;;;;;;30.60;18.10;;;;;;;;;;5275785;28;20268;-76
2022/11/20 04:17:07;;;;;;;28.17;18.05;;;;;;;;;;5275612;28;20033;-76
2022/11/20 04:19:38;;;;;;;28.57;18.13;;;;;;;;;;5275513;28;20367;-76
2022/11/20 04:22:11;;;;;;;30.13;17.83;;;;;;;;;;5276464;28;20323;-76
2022/11/20 04:24:42;;;;;;;28.70;18.65;;;;;;;;;;5279203;28;20105;-76
2022/11/20 04:27:13;;;;;;;28.40;17.83;;;;;;;;;;5259337;28;20028;-77
2022/11/20 04:29:44;;;;;;;26.30;17.02;;;;;;;;;;5274897;28;20393;-77
2022/11/20 04:32:15;;;;;;;29.80;18.30;;;;;;;;;;5279008;28;20041;-77
2022/11/20 04:34:47;;;;;;;31.00;19.63;;;;;;;;;;5273278;28;20269;-77
2022/11/20 04:37:18;;;;;;;28.13;17.95;;;;;;;;;;5277717;28;20271;-77
2022/11/20 04:39:49;;;;;;;28.55;18.55;;;;;;;;;;5273577;28;20036;-77
2022/11/20 04:42:30;;;;;;;31.00;18.90;;;;;;;;;;5275800;28;20041;-77
2022/11/20 04:45:01;;;;;;;30.17;18.45;;;;;;;;;;5275950;28;20438;-77
2022/11/20 04:47:32;;;;;;;27.85;18.38;;;;;;;;;;5276432;28;20049;-77
2022/11/20 04:50:03;;;;;;;27.15;18.00;;;;;;;;;;5258866;28;20025;-77
2022/11/20 04:52:35;;;;;;;29.25;17.83;;;;;;;;;;5275408;28;20033;-77
2022/11/20 04:55:06;;;;;;;28.63;18.58;;;;;;;;;;5272408;28;20032;-77
2022/11/20 04:57:37;;;;;;;28.58;18.42;;;;;;;;;;5275890;28;20111;-77
2022/11/20 05:00:09;;;;;;;27.48;18.13;;;;;;;;;;5273920;28;20371;-76
2022/11/20 05:02:40;;;;;;;29.60;18.55;;;;;;;;;;5286434;28;20043;-77
2022/11/20 05:05:11;;;;;;;26.77;16.93;;;;;;;;;;5278143;28;20107;-77
2022/11/20 05:07:42;;;;;;;27.13;17.92;;;;;;;;;;5273792;28;20276;-77
2022/11/20 05:10:13;;;;;;;27.03;17.30;;;;;;;;;;5272365;28;20025;-77
2022/11/20 05:12:45;;;;;;;28.05;18.20;;;;;;;;;;5275075;28;20307;-77
2022/11/20 05:15:16;;;;;;;29.77;17.60;;;;;;;;;;5277074;28;20033;-77
2022/11/20 05:17:48;;;;;;;30.45;18.75;;;;;;;;;;5275479;28;20313;-77
2022/11/20 05:20:19;;;;;;;30.85;18.95;;;;;;;;;;5272679;28;20083;-77
2022/11/20 05:22:51;;;;;;;30.05;19.27;;;;;;;;;;5276194;28;20044;-77
2022/11/20 05:25:22;;;;;;;30.75;19.83;;;;;;;;;;5256415;28;20385;-77
2022/11/20 05:27:53;;;;;;;31.80;19.55;;;;;;;;;;5272460;28;20037;-77
2022/11/20 05:30:24;;;;;;;30.55;19.25;;;;;;;;;;5278171;28;20032;-77
2022/11/20 05:32:56;;;;;;;33.85;21.17;;;;;;;;;;5280732;28;20071;-77
2022/11/20 05:35:27;;;;;;;27.47;19.40;;;;;;;;;;5277562;28;20434;-77
2022/11/20 05:37:58;;;;;;;28.95;17.63;;;;;;;;;;5277389;28;20284;-77
2022/11/20 05:40:29;;;;;;;31.20;18.98;;;;;;;;;;5279604;28;20064;-77
2022/11/20 05:43:00;;;;;;;32.47;19.52;;;;;;;;;;5279132;28;20033;-77
2022/11/20 05:45:32;;;;;;;26.33;16.63;;;;;;;;;;5258937;28;20075;-76
2022/11/20 05:48:03;;;;;;;31.23;19.70;;;;;;;;;;5275474;28;20059;-76
2022/11/20 05:50:35;;;;;;;31.85;19.98;;;;;;;;;;5276999;28;20123;-76
2022/11/20 05:53:06;;;;;;;31.67;19.65;;;;;;;;;;5279653;28;20079;-77
2022/11/20 05:55:37;;;;;;;31.27;19.40;;;;;;;;;;5277484;28;20035;-77
2022/11/20 05:58:08;;;;;;;30.70;19.40;;;;;;;;;;5278331;28;20075;-76
2022/11/20 06:00:39;;;;;;;31.90;20.03;;;;;;;;;;5280940;28;20432;-76
2022/11/20 06:03:11;;;;;;;26.90;18.40;;;;;;;;;;5259828;28;20859;-77
2022/11/20 06:05:42;;;;;;;27.90;18.03;;;;;;;;;;5259009;28;20295;-76
2022/11/20 06:08:13;;;;;;;31.40;20.20;;;;;;;;;;5265023;22;20308;-77
2022/11/20 06:10:44;;;;;;;28.50;19.60;;;;;;;;;;5234700;28;20296;-76
2022/11/20 06:13:15;;;;;;;27.98;19.05;;;;;;;;;;5233294;28;20053;-76
2022/11/20 06:15:50;;;;;;;32.50;19.75;;;;;;;;;;5217953;28;20037;-77
2022/11/20 06:18:21;;;;;;;24.92;17.83;;;;;;;;;;5235007;28;20026;-76
2022/11/20 06:20:59;;;;;;;25.63;17.13;;;;;;;;;;5233208;28;20116;-76
2022/11/20 06:23:31;;;;;;;27.40;16.75;;;;;;;;;;5234350;28;21723;-76
2022/11/20 06:26:06;;;;;;;28.25;19.13;;;;;;;;;;5219332;28;20041;-76
2022/11/20 06:28:37;;;;;;;28.40;19.10;;;;;;;;;;5233036;28;20125;-76
2022/11/20 06:31:10;;;;;;;27.05;17.88;;;;;;;;;;5236537;28;20538;-76
2022/11/20 06:33:42;;;;;;;24.83;16.67;;;;;;;;;;5233124;28;20478;-76
2022/11/20 06:36:14;;;;;;;25.60;16.67;;;;;;;;;;5235498;28;20088;-76
2022/11/20 06:38:46;;;;;;;30.92;19.30;;;;;;;;;;5234518;28;20033;-76
2022/11/20 06:41:21;;;;;;;30.98;20.88;;;;;;;;;;5233612;28;20410;-76
2022/11/20 06:43:52;;;;;;;27.70;18.83;;;;;;;;;;5234898;28;20033;-76
2022/11/20 06:46:23;;;;;;;28.42;19.58;;;;;;;;;;5236143;28;20493;-76
2022/11/20 06:48:55;;;;;;;29.65;20.13;;;;;;;;;;5232777;28;20292;-76
2022/11/20 06:51:26;;;;;;;29.70;20.00;;;;;;;;;;5235860;28;20045;-76
2022/11/20 06:54:00;;;;;;;33.13;22.45;;;;;;;;;;5231887;28;20092;-76
2022/11/20 06:56:32;;;;;;;32.58;21.40;;;;;;;;;;5233361;28;20117;-76
2022/11/20 06:59:04;;;;;;;33.35;22.35;;;;;;;;;;5217668;28;20036;-76
2022/11/20 07:01:35;;;;;;;35.03;22.52;;;;;;;;;;5234860;28;20471;-76
2022/11/20 07:04:06;;;;;;;34.13;21.67;;;;;;;;;;5232713;28;20028;-76
2022/11/20 07:06:37;;;;;;;30.48;20.92;;;;;;;;;;5232324;28;20042;-76
2022/11/20 07:09:09;;;;;;;33.90;22.27;;;;;;;;;;5233856;28;20518;-76
2022/11/20 07:11:40;;;;;;;33.33;22.08;;;;;;;;;;5234211;28;20121;-76
2022/11/20 07:14:11;;;;;;;37.67;23.70;;;;;;;;;;5217315;28;20046;-76
2022/11/20 07:16:42;;;;;;;32.67;22.63;;;;;;;;;;5234511;28;20273;-76
2022/11/20 07:19:13;;;;;;;34.50;22.20;;;;;;;;;;5234067;28;20277;-77
2022/11/20 07:21:44;;;;;;;36.00;21.57;;;;;;;;;;5216865;28;20832;-77
2022/11/20 07:24:16;;;;;;;30.00;21.43;;;;;;;;;;5231289;28;21417;-77
2022/11/20 07:26:48;;;;;;;35.50;22.40;;;;;;;;;;5231176;28;20582;-77
2022/11/20 07:29:20;;;;;;;31.60;21.75;;;;;;;;;;5232339;28;20285;-77
2022/11/20 07:31:51;;;;;;;33.13;22.73;;;;;;;;;;5232435;28;20026;-77
2022/11/20 07:34:22;;;;;;;32.23;22.60;;;;;;;;;;5230804;28;20368;-77
2022/11/20 07:36:53;;;;;;;32.75;24.25;;;;;;;;;;5228969;28;20296;-77
2022/11/20 07:39:24;;;;;;;33.43;24.53;;;;;;;;;;5232485;28;20030;-77
2022/11/20 07:41:56;;;;;;;30.75;22.55;;;;;;;;;;5231231;28;20301;-77
2022/11/20 07:44:27;;;;;;;33.70;24.35;;;;;;;;;;5230777;28;20978;-77
2022/11/20 07:46:58;;;;;;;32.90;23.67;;;;;;;;;;5232901;28;20038;-76
2022/11/20 07:49:29;;;;;;;28.77;21.03;;;;;;;;;;5231893;28;23151;-77
2022/11/20 07:52:01;;;;;;;28.90;21.33;;;;;;;;;;5230147;28;20725;-77
2022/11/20 07:54:32;;;;;;;30.45;22.33;;;;;;;;;;5232255;28;20108;-77
2022/11/20 07:57:03;;;;;;;29.90;22.70;;;;;;;;;;5232821;28;20030;-77
2022/11/20 07:59:34;;;;;;;30.45;21.80;;;;;;;;;;5230508;28;20045;-77
2022/11/20 08:02:05;;;;;;;27.00;20.40;;;;;;;;;;5233385;28;20038;-77
2022/11/20 08:04:37;;;;;;;27.57;19.60;;;;;;;;;;5230562;28;20606;-77
2022/11/20 08:07:08;;;;;;;26.37;18.73;;;;;;;;;;5216100;28;20344;-77
2022/11/20 08:09:39;;;;;;;26.40;18.70;;;;;;;;;;5231100;28;20269;-77
2022/11/20 08:15:08;;;;;;;26.38;17.48;;;;;;;;;;5230167;28;20265;-77
2022/11/20 08:17:39;;;;;;;24.63;17.33;;;;;;;;;;5216417;28;20388;-78
2022/11/20 08:20:10;;;;;;;25.60;16.77;;;;;;;;;;5233193;28;20100;-78
2022/11/20 08:22:42;;;;;;;24.05;17.40;;;;;;;;;;5229608;28;20280;-78
2022/11/20 08:25:13;;;;;;;21.80;16.55;;;;;;;;;;5233903;28;20508;-77
2022/11/20 08:27:44;;;;;;;21.73;16.60;;;;;;;;;;5232443;28;20339;-78
2022/11/20 08:30:15;;;;;;;24.03;16.73;;;;;;;;;;5233093;28;20401;-78
2022/11/20 08:32:46;;;;;;;23.65;17.08;;;;;;;;;;5231491;28;20273;-78
2022/11/20 08:35:17;;;;;;;24.73;16.27;;;;;;;;;;5215372;28;20026;-78
2022/11/20 08:37:49;;;;;;;25.17;16.85;;;;;;;;;;5231807;28;20484;-78
2022/11/20 08:40:20;;;;;;;23.10;16.30;;;;;;;;;;5233309;28;20142;-78
2022/11/20 08:42:51;;;;;;;24.00;17.45;;;;;;;;;;5231588;28;20038;-78
2022/11/20 08:48:38;;;;;;;25.70;17.15;;;;;;;;;;5234317;28;20777;-79
2022/11/20 08:51:56;;;;;;;24.58;17.40;;;;;;;;;;5232677;28;20029;-79
2022/11/20 08:54:53;;;;;;;23.58;16.27;;;;;;;;;;5232016;28;20034;-78
2022/11/20 08:57:55;;;;;;;25.40;17.45;;;;;;;;;;5220000;28;20435;-78
2022/11/20 09:00:36;;;;;;;23.13;16.75;;;;;;;;;;5236958;28;20065;-78
2022/11/20 09:03:13;;;;;;;23.00;15.88;;;;;;;;;;5237060;28;20077;-78
2022/11/20 09:05:53;;;;;;;24.52;16.55;;;;;;;;;;5221691;28;20092;-77
2022/11/20 09:08:37;;;;;;;24.52;17.02;;;;;;;;;;5236136;28;20470;-78
2022/11/20 09:11:08;;;;;;;25.25;17.40;;;;;;;;;;5221307;28;20049;-78
2022/11/20 09:13:39;;;;;;;28.40;18.00;;;;;;;;;;5216811;28;20116;-77
2022/11/20 09:16:11;;;;;;;31.48;19.92;;;;;;;;;;5235623;28;20084;-77
2022/11/20 09:18:42;;;;;;;24.90;16.73;;;;;;;;;;5217770;28;20037;-77
2022/11/20 09:21:14;;;;;;;33.28;21.50;;;;;;;;;;5234828;28;20455;-77
2022/11/20 09:23:45;;;;;;;37.22;21.60;;;;;;;;;;5234139;28;20022;-77
2022/11/20 09:26:17;;;;;;;39.83;22.15;;;;;;;;;;5235691;28;20112;-77
2022/11/20 09:28:48;;;;;;;42.90;23.38;;;;;;;;;;5234860;28;20037;-77
2022/11/20 09:31:23;;;;;;;36.22;20.60;;;;;;;;;;5234450;28;20033;-77
2022/11/20 09:33:55;;;;;;;34.55;19.42;;;;;;;;;;5234284;28;20580;-78
2022/11/20 09:36:26;;;;;;;33.75;20.60;;;;;;;;;;5235362;28;20026;-77
2022/11/20 09:38:57;;;;;;;32.88;20.73;;;;;;;;;;5234937;28;20026;-77
2022/11/20 09:41:44;;;;;;;36.55;22.08;;;;;;;;;;5239661;28;20078;-77
2022/11/20 09:44:28;;;;;;;39.10;22.63;;;;;;;;;;5236747;28;20042;-77
2022/11/20 09:46:59;;;;;;;37.70;20.88;;;;;;;;;;5234670;28;21944;-77
2022/11/20 09:49:54;;;;;;;39.47;20.85;;;;;;;;;;5236134;28;20021;-76
2022/11/20 09:52:28;;;;;;;39.97;21.77;;;;;;;;;;5222326;28;20336;-77
2022/11/20 09:55:01;;;;;;;43.20;24.23;;;;;;;;;;5239735;28;20041;-78
2022/11/20 09:57:35;;;;;;;48.83;26.15;;;;;;;;;;5238648;28;20120;-78
2022/11/20 10:00:11;;;;;;;49.05;26.95;;;;;;;;;;5241671;28;20041;-77
2022/11/20 10:02:49;;;;;;;47.00;27.33;;;;;;;;;;5238387;28;20041;-78
2022/11/20 10:05:22;;;;;;;49.22;25.92;;;;;;;;;;5237600;28;20517;-77
2022/11/20 10:08:00;;;;;;;45.65;26.60;;;;;;;;;;5232795;28;21338;-76
2022/11/20 10:10:35;;;;;;;45.03;23.23;;;;;;;;;;5237355;28;20026;-78
2022/11/20 10:13:25;;;;;;;41.63;24.73;;;;;;;;;;5241098;28;20053;-78
2022/11/20 10:16:15;;;;;;;40.67;24.50;;;;;;;;;;5238978;28;20105;-78
2022/11/20 10:19:16;;;;;;;41.70;23.08;;;;;;;;;;5224385;28;20034;-78
2022/11/20 10:21:56;;;;;;;37.47;23.30;;;;;;;;;;5224626;28;20065;-76
2022/11/20 10:24:27;;;;;;;39.85;23.52;;;;;;;;;;5234847;28;20034;-77
2022/11/20 10:26:58;;;;;;;40.70;22.60;;;;;;;;;;5232080;28;20034;-77
2022/11/20 10:29:33;;;;;;;42.42;23.67;;;;;;;;;;5218016;28;20363;-77
2022/11/20 10:32:09;;;;;;;41.47;22.33;;;;;;;;;;5230463;28;20405;-78
2022/11/20 10:34:40;;;;;;;37.20;23.50;;;;;;;;;;5234761;28;20525;-77
2022/11/20 10:37:14;;;;;;;42.22;22.40;;;;;;;;;;5235387;28;20038;-78
2022/11/20 10:39:50;;;;;;;42.83;24.65;;;;;;;;;;5218229;28;20026;-78
2022/11/20 10:42:40;;;;;;;42.47;24.47;;;;;;;;;;5238715;28;20514;-77
2022/11/20 10:45:23;;;;;;;45.10;26.17;;;;;;;;;;5236518;28;20807;-78
2022/11/20 10:47:57;;;;;;;43.60;23.88;;;;;;;;;;5238607;28;20109;-78
2022/11/20 10:50:30;;;;;;;42.92;25.38;;;;;;;;;;5235755;28;20096;-78
2022/11/20 10:53:16;;;;;;;42.10;24.98;;;;;;;;;;5240151;28;20044;-78
2022/11/20 10:55:53;;;;;;;46.78;26.42;;;;;;;;;;5237275;28;20036;-78
2022/11/20 10:58:43;;;;;;;42.35;25.77;;;;;;;;;;5237520;28;20034;-77
2022/11/20 11:01:16;;;;;;;39.72;25.00;;;;;;;;;;5237361;28;20046;-77
2022/11/20 11:03:48;;;;;;;41.92;25.98;;;;;;;;;;5239805;28;20022;-78
2022/11/20 11:06:19;;;;;;;41.95;25.08;;;;;;;;;;5236557;28;20038;-77
2022/11/20 11:08:51;;;;;;;43.13;25.90;;;;;;;;;;5233089;28;20399;-78
2022/11/20 11:11:24;;;;;;;43.78;26.55;;;;;;;;;;5236949;28;21631;-78
2022/11/20 11:14:08;;;;;;;42.25;25.90;;;;;;;;;;5237937;28;20053;-78
2022/11/20 11:16:50;;;;;;;44.28;26.17;;;;;;;;;;5241933;28;20075;-78
2022/11/20 11:19:21;;;;;;;38.97;25.00;;;;;;;;;;5222649;28;20024;-78
2022/11/20 11:21:56;;;;;;;49.70;28.73;;;;;;;;;;5240671;28;20391;-78
2022/11/20 11:24:28;;;;;;;44.13;25.90;;;;;;;;;;5241376;28;20026;-77
2022/11/20 11:27:10;;;;;;;45.05;27.90;;;;;;;;;;5237323;28;20026;-78
2022/11/20 11:29:41;;;;;;;46.50;28.52;;;;;;;;;;5240833;28;20030;-78
2022/11/20 11:32:14;;;;;;;48.23;27.40;;;;;;;;;;5240860;28;20037;-78
2022/11/20 11:34:57;;;;;;;47.85;28.33;;;;;;;;;;5224274;28;20625;-78
2022/11/20 11:37:33;;;;;;;45.15;28.92;;;;;;;;;;5223831;28;20034;-78
2022/11/20 11:40:06;;;;;;;47.63;28.27;;;;;;;;;;5223670;28;20125;-78
2022/11/20 11:42:46;;;;;;;44.88;27.58;;;;;;;;;;5238254;28;20065;-78
2022/11/20 11:45:17;;;;;;;51.60;29.95;;;;;;;;;;5235115;28;20081;-77
2022/11/20 11:47:51;;;;;;;45.47;29.10;;;;;;;;;;5238297;28;20034;-78
2022/11/20 11:50:26;;;;;;;49.58;28.80;;;;;;;;;;5234477;28;20273;-77
2022/11/20 11:53:14;;;;;;;50.65;31.02;;;;;;;;;;5238827;28;20131;-78
2022/11/20 11:56:03;;;;;;;48.65;30.27;;;;;;;;;;5235285;28;20112;-78
2022/11/20 11:58:34;;;;;;;49.72;29.80;;;;;;;;;;5235388;28;20038;-78
2022/11/20 12:01:09;;;;;;;47.37;28.97;;;;;;;;;;5248168;28;20099;-78
2022/11/20 12:03:42;;;;;;;50.80;30.67;;;;;;;;;;5241022;28;20249;-78
2022/11/20 12:06:14;;;;;;;51.63;32.50;;;;;;;;;;5231688;28;20030;-77
2022/11/20 12:09:03;;;;;;;49.88;29.90;;;;;;;;;;5236821;28;20095;-78
2022/11/20 12:11:38;;;;;;;52.67;30.40;;;;;;;;;;5240634;28;20040;-78
2022/11/20 12:14:14;;;;;;;58.55;32.72;;;;;;;;;;5239187;28;20467;-78
2022/11/20 12:16:45;;;;;;;55.87;32.27;;;;;;;;;;5218697;28;20038;-78
2022/11/20 12:19:17;;;;;;;53.97;31.50;;;;;;;;;;5237958;28;20586;-78
2022/11/20 12:22:00;;;;;;;56.30;31.20;;;;;;;;;;5220890;28;20433;-78
2022/11/20 12:24:53;;;;;;;51.78;30.23;;;;;;;;;;5236960;28;21001;-76
2022/11/20 12:27:44;;;;;;;55.65;31.40;;;;;;;;;;5237237;28;20026;-77
2022/11/20 12:30:17;;;;;;;52.38;30.55;;;;;;;;;;5240111;28;20446;-77
2022/11/20 12:33:03;;;;;;;52.30;29.77;;;;;;;;;;5221335;28;20386;-77
2022/11/20 12:35:53;;;;;;;53.25;28.92;;;;;;;;;;5239024;28;20030;-77
2022/11/20 12:38:25;;;;;;;50.53;28.85;;;;;;;;;;5220441;28;20030;-77
2022/11/20 12:41:09;;;;;;;53.75;29.55;;;;;;;;;;5221657;28;20072;-77
2022/11/20 12:47:02;;;;;;;53.67;29.83;;;;;;;;;;5237001;28;20455;-77
2022/11/20 12:49:48;;;;;;;54.28;29.20;;;;;;;;;;5238504;28;20025;-77
2022/11/20 12:52:22;;;;;;;53.15;30.35;;;;;;;;;;5241306;28;20034;-77
2022/11/20 12:54:56;;;;;;;51.30;28.80;;;;;;;;;;5220925;28;20052;-76
2022/11/20 12:57:44;;;;;;;49.53;28.58;;;;;;;;;;5244541;28;20137;-77
2022/11/20 13:00:22;;;;;;;49.58;28.35;;;;;;;;;;5239259;28;20386;-77
2022/11/20 13:03:09;;;;;;;49.85;29.10;;;;;;;;;;5236112;28;20402;-77
2022/11/20 13:05:49;;;;;;;46.28;26.58;;;;;;;;;;5240818;28;20046;-77
2022/11/20 13:08:35;;;;;;;47.25;26.52;;;;;;;;;;5239544;28;20100;-77
2022/11/20 13:11:09;;;;;;;51.45;29.10;;;;;;;;;;5236547;28;20089;-77
2022/11/20 13:14:00;;;;;;;47.38;28.65;;;;;;;;;;5238936;28;20128;-76
2022/11/20 13:16:31;;;;;;;46.95;26.40;;;;;;;;;;5235625;28;20026;-77
2022/11/20 13:19:03;;;;;;;46.67;26.45;;;;;;;;;;5235247;28;20045;-77
2022/11/20 13:21:51;;;;;;;48.92;28.02;;;;;;;;;;5238432;28;20026;-77
2022/11/20 13:24:26;;;;;;;48.88;27.25;;;;;;;;;;5239122;28;20176;-77
2022/11/20 13:27:03;;;;;;;48.60;27.77;;;;;;;;;;5239193;28;20061;-77
2022/11/20 13:29:35;;;;;;;51.20;28.85;;;;;;;;;;5230129;28;20029;-77
2022/11/20 13:32:13;;;;;;;46.67;27.52;;;;;;;;;;5240558;28;20022;-77
2022/11/20 13:35:01;;;;;;;55.85;29.60;;;;;;;;;;5236015;28;20056;-77
2022/11/20 13:37:33;;;;;;;52.63;29.58;;;;;;;;;;5236086;28;20482;-77
2022/11/20 13:40:08;;;;;;;50.38;26.95;;;;;;;;;;5219782;28;20076;-77
2022/11/20 13:42:42;;;;;;;53.20;28.00;;;;;;;;;;5238607;28;20088;-77
2022/11/20 13:45:32;;;;;;;51.88;29.38;;;;;;;;;;5241882;28;20356;-77
2022/11/20 13:48:20;;;;;;;50.92;29.75;;;;;;;;;;5224067;28;20088;-76
2022/11/20 13:51:12;;;;;;;51.78;29.20;;;;;;;;;;5234937;28;20033;-77
2022/11/20 13:53:55;;;;;;;53.20;30.58;;;;;;;;;;5240090;28;20500;-76
2022/11/20 13:56:45;;;;;;;51.70;28.80;;;;;;;;;;5234937;28;20037;-76
2022/11/20 13:59:37;;;;;;;55.60;29.98;;;;;;;;;;5232517;28;20041;-76
2022/11/20 14:02:14;;;;;;;54.35;30.42;;;;;;;;;;5221636;28;20120;-76
2022/11/20 14:04:46;;;;;;;55.35;29.52;;;;;;;;;;5221363;28;20038;-77
2022/11/20 14:07:20;;;;;;;49.58;28.02;;;;;;;;;;5224589;28;20065;-77
2022/11/20 14:09:52;;;;;;;59.55;31.52;;;;;;;;;;5222529;28;20459;-77
2022/11/20 14:12:28;;;;;;;60.60;32.08;;;;;;;;;;5222863;28;20038;-77
2022/11/20 14:14:59;;;;;;;53.80;28.80;;;;;;;;;;5241422;28;20022;-77
2022/11/20 14:17:32;;;;;;;55.03;30.98;;;;;;;;;;5242822;28;20025;-77
2022/11/20 14:20:04;;;;;;;55.33;31.67;;;;;;;;;;5243561;28;20026;-77
2022/11/20 14:22:36;;;;;;;56.28;29.73;;;;;;;;;;5242772;28;20117;-76
2022/11/20 14:25:07;;;;;;;56.13;28.63;;;;;;;;;;5243049;28;20097;-77
2022/11/20 14:27:40;;;;;;;56.10;28.95;;;;;;;;;;5243091;28;20277;-77
2022/11/20 14:30:15;;;;;;;57.95;31.08;;;;;;;;;;5242034;28;20018;-77
2022/11/20 14:32:47;;;;;;;62.53;30.67;;;;;;;;;;5242875;28;20394;-76
2022/11/20 14:35:24;;;;;;;68.50;32.50;;;;;;;;;;5242592;28;20076;-76
2022/11/20 14:37:55;;;;;;;63.63;33.72;;;;;;;;;;5243074;28;20469;-77
2022/11/20 14:40:28;;;;;;;73.80;35.88;;;;;;;;;;5242117;28;20029;-77
2022/11/20 14:42:59;;;;;;;75.20;36.92;;;;;;;;;;5224655;28;20030;-77
2022/11/20 14:45:31;;;;;;;80.32;36.05;;;;;;;;;;5242466;28;20038;-77
2022/11/20 14:48:02;;;;;;;80.60;36.05;;;;;;;;;;5241350;28;20038;-77
2022/11/20 14:50:34;;;;;;;88.45;38.05;;;;;;;;;;5241819;28;20030;-77
2022/11/20 14:53:05;;;;;;;96.13;39.85;;;;;;;;;;5224117;28;20429;-77
2022/11/20 14:55:38;;;;;;;89.57;37.43;;;;;;;;;;5233318;28;20162;-77
2022/11/20 14:58:23;;;;;;;103.40;41.67;;;;;;;;;;5244128;28;20284;-79
2022/11/20 15:01:05;;;;;;;90.75;38.88;;;;;;;;;;5249948;28;20418;-79
2022/11/20 15:03:38;;;;;;;99.10;40.50;;;;;;;;;;5225677;28;20122;-77
2022/11/20 15:06:11;;;;;;;91.10;38.67;;;;;;;;;;5244330;28;20020;-78
2022/11/20 15:08:52;;;;;;;95.07;37.95;;;;;;;;;;5243421;28;20066;-77
2022/11/20 15:11:31;;;;;;;104.60;41.70;;;;;;;;;;5227287;28;20037;-77